Time,TemperatureF,DewpointF,PressureIn,WindDirection,WindDirectionDegrees,WindSpeedMPH,WindSpeedGustMPH,Humidity,HourlyPrecipIn,Conditions,Clouds,dailyrainin,SoftwareType,DateUTC
2013-04-17 00:04:00,39.2,16.3,30.17,NNE,14,0.0,0.0,39,0.00,,CLR,0.00,VWS V14.01,2013-04-17 05:04:00,
2013-04-17 00:10:00,39.2,16.3,30.17,NNE,12,0.0,0.0,39,0.00,,CLR,0.00,VWS V14.01,2013-04-17 05:10:00,
2013-04-17 00:15:00,39.0,16.2,30.17,North,11,0.0,0.0,39,0.00,,CLR,0.00,VWS V14.01,2013-04-17 05:15:00,
2013-04-17 00:20:00,39.2,16.3,30.17,North,11,0.0,0.0,39,0.00,,CLR,0.00,VWS V14.01,2013-04-17 05:20:00,
2013-04-17 00:27:00,39.2,15.7,30.17,North,10,0.0,0.0,38,0.00,,CLR,0.00,VWS V14.01,2013-04-17 05:27:00,
2013-04-17 00:32:00,39.2,15.1,30.17,NNE,12,3.6,3.6,37,0.00,,CLR,0.00,VWS V14.01,2013-04-17 05:32:00,
2013-04-17 00:37:00,39.4,15.3,30.17,North,11,2.2,2.7,37,0.00,,CLR,0.00,VWS V14.01,2013-04-17 05:37:00,
2013-04-17 00:43:00,39.4,14.7,30.17,North,7,4.0,4.0,36,0.00,,CLR,0.00,VWS V14.01,2013-04-17 05:43:00,
2013-04-17 00:48:00,39.4,14.0,30.17,NNE,13,3.6,4.0,35,0.00,,CLR,0.00,VWS V14.01,2013-04-17 05:48:00,
2013-04-17 00:54:00,39.4,14.0,30.17,NNE,12,3.6,4.0,35,0.00,,CLR,0.00,VWS V14.01,2013-04-17 05:54:00,
2013-04-17 00:59:00,39.4,14.0,30.17,NNE,12,4.0,4.9,35,0.00,,CLR,0.00,VWS V14.01,2013-04-17 05:59:00,
2013-04-17 01:05:00,39.4,13.4,30.17,NNE,13,4.0,5.4,34,0.00,,CLR,0.00,VWS V14.01,2013-04-17 06:05:00,
2013-04-17 01:10:00,39.4,13.4,30.17,North,5,4.0,4.9,34,0.00,,CLR,0.00,VWS V14.01,2013-04-17 06:10:00,
2013-04-17 01:15:00,39.6,13.5,30.20,North,9,3.6,4.0,34,0.00,,CLR,0.00,VWS V14.01,2013-04-17 06:15:00,
2013-04-17 01:20:00,39.6,13.5,30.20,North,11,4.0,4.9,34,0.00,,CLR,0.00,VWS V14.01,2013-04-17 06:20:00,
2013-04-17 01:26:00,39.6,13.5,30.20,NNE,16,4.0,4.9,34,0.00,,CLR,0.00,VWS V14.01,2013-04-17 06:26:00,
2013-04-17 01:32:00,39.4,13.4,30.20,North,0,4.0,4.0,34,0.00,,CLR,0.00,VWS V14.01,2013-04-17 06:32:00,
2013-04-17 01:37:00,39.4,13.4,30.20,North,5,3.1,3.6,34,0.00,,CLR,0.00,VWS V14.01,2013-04-17 06:37:00,
2013-04-17 01:42:00,39.2,13.2,30.20,NNE,14,4.9,4.9,34,0.00,,CLR,0.00,VWS V14.01,2013-04-17 06:42:00,
2013-04-17 01:48:00,39.0,13.7,30.17,North,6,4.0,5.4,35,0.00,,CLR,0.00,VWS V14.01,2013-04-17 06:48:00,
2013-04-17 01:53:00,38.8,13.5,30.17,NNE,15,3.6,4.0,35,0.00,,CLR,0.00,VWS V14.01,2013-04-17 06:53:00,
2013-04-17 01:58:00,38.8,13.5,30.17,North,11,2.7,2.7,35,0.00,,CLR,0.00,VWS V14.01,2013-04-17 06:58:00,
2013-04-17 02:04:00,38.8,13.5,30.17,North,5,0.0,3.1,35,0.00,,CLR,0.00,VWS V14.01,2013-04-17 07:04:00,
2013-04-17 02:10:00,38.8,13.5,30.17,North,5,2.7,3.1,35,0.00,,CLR,0.00,VWS V14.01,2013-04-17 07:10:00,
2013-04-17 02:15:00,38.7,13.4,30.20,North,5,3.1,3.6,35,0.00,,CLR,0.00,VWS V14.01,2013-04-17 07:15:00,
2013-04-17 02:20:00,38.5,13.2,30.20,North,5,2.7,4.0,35,0.00,,CLR,0.00,VWS V14.01,2013-04-17 07:20:00,
2013-04-17 02:26:00,38.5,13.2,30.20,North,7,0.0,3.6,35,0.00,,CLR,0.00,VWS V14.01,2013-04-17 07:26:00,
2013-04-17 02:31:00,38.5,13.9,30.17,North,7,0.0,2.2,36,0.00,,CLR,0.00,VWS V14.01,2013-04-17 07:31:00,
2013-04-17 02:36:00,38.5,13.9,30.17,North,7,0.0,0.0,36,0.00,,CLR,0.00,VWS V14.01,2013-04-17 07:36:00,
2013-04-17 02:41:00,38.3,13.7,30.17,North,9,0.0,0.0,36,0.00,,CLR,0.00,VWS V14.01,2013-04-17 07:41:00,
2013-04-17 02:46:00,38.3,13.7,30.17,North,9,0.0,0.0,36,0.00,,CLR,0.00,VWS V14.01,2013-04-17 07:46:00,
2013-04-17 02:52:00,38.1,13.5,30.17,North,9,0.0,0.0,36,0.00,,CLR,0.00,VWS V14.01,2013-04-17 07:52:00,
2013-04-17 02:57:00,37.9,13.4,30.17,North,9,0.0,0.0,36,0.00,,CLR,0.00,VWS V14.01,2013-04-17 07:57:00,
2013-04-17 03:03:00,37.8,13.2,30.17,North,9,0.0,0.0,36,0.00,,CLR,0.00,VWS V14.01,2013-04-17 08:03:00,
2013-04-17 03:08:00,37.4,12.9,30.17,North,9,0.0,0.0,36,0.00,,CLR,0.00,VWS V14.01,2013-04-17 08:08:00,
2013-04-17 03:14:00,37.4,13.5,30.17,North,9,0.0,0.0,37,0.00,,CLR,0.00,VWS V14.01,2013-04-17 08:14:00,
2013-04-17 03:19:00,37.0,13.8,30.17,North,9,0.0,0.0,38,0.00,,CLR,0.00,VWS V14.01,2013-04-17 08:19:00,
2013-04-17 03:24:00,37.0,14.4,30.17,North,9,0.0,0.0,39,0.00,,CLR,0.00,VWS V14.01,2013-04-17 08:24:00,
2013-04-17 03:29:00,36.9,14.2,30.17,North,9,0.0,0.0,39,0.00,,CLR,0.00,VWS V14.01,2013-04-17 08:29:00,
2013-04-17 03:34:00,36.7,14.6,30.17,NNE,17,2.2,4.0,40,0.00,,CLR,0.00,VWS V14.01,2013-04-17 08:34:00,
2013-04-17 03:39:00,36.3,14.3,30.17,NE,51,0.0,0.0,40,0.00,,CLR,0.00,VWS V14.01,2013-04-17 08:39:00,
2013-04-17 03:45:00,36.1,14.7,30.17,NE,39,0.0,0.0,41,0.00,,CLR,0.00,VWS V14.01,2013-04-17 08:45:00,
2013-04-17 03:50:00,36.1,14.7,30.17,NE,39,0.0,0.0,41,0.00,,CLR,0.00,VWS V14.01,2013-04-17 08:50:00,
2013-04-17 03:55:00,36.0,14.6,30.17,ENE,67,0.0,4.0,41,0.00,,CLR,0.00,VWS V14.01,2013-04-17 08:55:00,
2013-04-17 04:01:00,35.8,14.4,30.17,East,92,6.3,6.3,41,0.00,,CLR,0.00,VWS V14.01,2013-04-17 09:01:00,
2013-04-17 04:07:00,35.6,14.8,30.17,East,92,0.0,0.0,42,0.00,,CLR,0.00,VWS V14.01,2013-04-17 09:07:00,
2013-04-17 04:12:00,35.4,14.6,30.17,ENE,67,3.1,4.9,42,0.00,,CLR,0.00,VWS V14.01,2013-04-17 09:12:00,
2013-04-17 04:18:00,35.2,14.5,30.17,East,81,0.0,6.7,42,0.00,,CLR,0.00,VWS V14.01,2013-04-17 09:18:00,
2013-04-17 04:24:00,35.1,14.8,30.17,East,81,3.6,5.4,43,0.00,,CLR,0.00,VWS V14.01,2013-04-17 09:24:00,
2013-04-17 04:29:00,35.1,14.8,30.17,East,79,3.6,4.9,43,0.00,,CLR,0.00,VWS V14.01,2013-04-17 09:29:00,
2013-04-17 04:34:00,35.1,14.8,30.17,ENE,62,4.0,6.3,43,0.00,,CLR,0.00,VWS V14.01,2013-04-17 09:34:00,
2013-04-17 04:39:00,35.2,15.5,30.17,East,92,3.1,3.6,44,0.00,,CLR,0.00,VWS V14.01,2013-04-17 09:39:00,
2013-04-17 04:45:00,35.4,16.2,30.17,ENE,68,4.9,4.9,45,0.00,,CLR,0.00,VWS V14.01,2013-04-17 09:45:00,
2013-04-17 04:50:00,35.4,16.2,30.17,East,95,4.0,6.3,45,0.00,,CLR,0.00,VWS V14.01,2013-04-17 09:50:00,
2013-04-17 04:55:00,35.4,16.7,30.17,East,86,3.6,8.7,46,0.00,,CLR,0.00,VWS V14.01,2013-04-17 09:55:00,
2013-04-17 05:00:00,35.4,16.7,30.17,ENE,76,8.1,8.3,46,0.00,,CLR,0.00,VWS V14.01,2013-04-17 10:00:00,
2013-04-17 05:05:00,35.4,17.2,30.17,East,90,3.6,4.9,47,0.00,,CLR,0.00,VWS V14.01,2013-04-17 10:05:00,
2013-04-17 05:10:00,35.2,17.0,30.17,East,82,2.7,4.0,47,0.00,,CLR,0.00,VWS V14.01,2013-04-17 10:10:00,
2013-04-17 05:16:00,35.1,16.9,30.17,East,98,2.7,4.9,47,0.00,,CLR,0.00,VWS V14.01,2013-04-17 10:16:00,
2013-04-17 05:21:00,35.1,16.9,30.17,ENE,73,3.6,6.3,47,0.00,,CLR,0.00,VWS V14.01,2013-04-17 10:21:00,
2013-04-17 05:26:00,34.9,17.2,30.17,East,86,4.0,5.4,48,0.00,,CLR,0.00,VWS V14.01,2013-04-17 10:26:00,
2013-04-17 05:32:00,34.7,17.0,30.17,East,83,4.0,7.6,48,0.00,,CLR,0.00,VWS V14.01,2013-04-17 10:32:00,
2013-04-17 05:37:00,34.5,16.9,30.17,ENE,67,8.7,8.7,48,0.00,,CLR,0.00,VWS V14.01,2013-04-17 10:37:00,
2013-04-17 05:42:00,34.3,17.2,30.17,East,85,0.0,3.6,49,0.00,,CLR,0.00,VWS V14.01,2013-04-17 10:42:00,
2013-04-17 05:48:00,34.3,17.2,30.17,ENE,69,3.1,4.9,49,0.00,,CLR,0.00,VWS V14.01,2013-04-17 10:48:00,
2013-04-17 05:53:00,34.3,17.2,30.17,East,101,4.0,4.0,49,0.00,,CLR,0.00,VWS V14.01,2013-04-17 10:53:00,
2013-04-17 05:59:00,34.2,17.5,30.17,East,85,5.4,5.8,50,0.00,,CLR,0.00,VWS V14.01,2013-04-17 10:59:00,
2013-04-17 06:04:00,34.2,17.5,30.17,ESE,102,3.1,3.6,50,0.00,,CLR,0.00,VWS V14.01,2013-04-17 11:04:00,
2013-04-17 06:10:00,34.2,17.5,30.17,ENE,70,0.0,0.0,50,0.00,,CLR,0.00,VWS V14.01,2013-04-17 11:10:00,
2013-04-17 06:15:00,34.0,17.3,30.17,ENE,73,4.0,4.0,50,0.00,,CLR,0.00,VWS V14.01,2013-04-17 11:15:00,
2013-04-17 06:21:00,34.2,17.5,30.17,NE,50,4.0,4.0,50,0.00,,CLR,0.00,VWS V14.01,2013-04-17 11:21:00,
2013-04-17 06:26:00,34.2,17.9,30.17,ENE,64,3.6,4.0,51,0.00,,CLR,0.00,VWS V14.01,2013-04-17 11:26:00,
2013-04-17 06:31:00,34.2,17.9,30.17,ENE,57,2.7,3.6,51,0.00,,CLR,0.00,VWS V14.01,2013-04-17 11:31:00,
2013-04-17 06:37:00,34.3,18.5,30.17,ENE,61,3.6,3.6,52,0.00,,CLR,0.00,VWS V14.01,2013-04-17 11:37:00,
2013-04-17 06:42:00,34.3,19.0,30.17,NE,53,3.6,4.0,53,0.00,,CLR,0.00,VWS V14.01,2013-04-17 11:42:00,
2013-04-17 06:48:00,34.5,19.2,30.14,ENE,73,3.1,3.1,53,0.00,,CLR,0.00,VWS V14.01,2013-04-17 11:48:00,
2013-04-17 06:53:00,34.7,19.3,30.14,ENE,67,0.0,3.1,53,0.00,,CLR,0.00,VWS V14.01,2013-04-17 11:53:00,
2013-04-17 06:58:00,35.1,19.7,30.17,ENE,63,7.6,7.6,53,0.00,,CLR,0.00,VWS V14.01,2013-04-17 11:58:00,
2013-04-17 07:04:00,35.4,20.4,30.17,ENE,69,3.1,5.4,54,0.00,,CLR,0.00,VWS V14.01,2013-04-17 12:04:00,
2013-04-17 07:09:00,35.4,20.0,30.17,ENE,78,2.7,6.7,53,0.00,,CLR,0.00,VWS V14.01,2013-04-17 12:09:00,
2013-04-17 07:15:00,35.6,20.2,30.17,ENE,77,2.2,6.3,53,0.00,,CLR,0.00,VWS V14.01,2013-04-17 12:15:00,
2013-04-17 07:20:00,35.6,20.2,30.17,NNE,23,4.0,5.4,53,0.00,,CLR,0.00,VWS V14.01,2013-04-17 12:20:00,
2013-04-17 07:26:00,35.8,19.9,30.17,East,95,4.9,8.1,52,0.00,,CLR,0.00,VWS V14.01,2013-04-17 12:26:00,
2013-04-17 07:31:00,35.8,19.9,30.17,East,90,3.1,5.8,52,0.00,,CLR,0.00,VWS V14.01,2013-04-17 12:31:00,
2013-04-17 07:37:00,36.1,20.2,30.17,ENE,75,6.3,9.6,52,0.00,,CLR,0.00,VWS V14.01,2013-04-17 12:37:00,
2013-04-17 07:42:00,36.3,20.4,30.17,ESE,115,5.4,6.3,52,0.00,,CLR,0.00,VWS V14.01,2013-04-17 12:42:00,
2013-04-17 07:47:00,36.5,20.6,30.20,ESE,112,5.4,5.8,52,0.00,,CLR,0.00,VWS V14.01,2013-04-17 12:47:00,
2013-04-17 07:52:00,36.7,20.7,30.20,East,90,6.3,6.3,52,0.00,,CLR,0.00,VWS V14.01,2013-04-17 12:52:00,
2013-04-17 07:57:00,36.9,20.9,30.20,East,97,8.7,8.7,52,0.00,,CLR,0.00,VWS V14.01,2013-04-17 12:57:00,
2013-04-17 08:03:00,37.0,20.6,30.20,East,96,3.1,10.1,51,0.00,,CLR,0.00,VWS V14.01,2013-04-17 13:03:00,
2013-04-17 08:08:00,37.4,20.9,30.20,East,79,3.6,6.3,51,0.00,,CLR,0.00,VWS V14.01,2013-04-17 13:08:00,
2013-04-17 08:13:00,37.6,20.6,30.20,ENE,76,7.6,7.6,50,0.00,,CLR,0.00,VWS V14.01,2013-04-17 13:13:00,
2013-04-17 08:19:00,37.8,20.8,30.20,ESE,114,3.1,7.6,50,0.00,,CLR,0.00,VWS V14.01,2013-04-17 13:19:00,
2013-04-17 08:24:00,37.9,20.5,30.20,ENE,77,6.3,11.0,49,0.00,,CLR,0.00,VWS V14.01,2013-04-17 13:24:00,
2013-04-17 08:29:00,38.1,20.7,30.20,ENE,72,3.1,7.6,49,0.00,,CLR,0.00,VWS V14.01,2013-04-17 13:29:00,
2013-04-17 08:35:00,38.3,20.8,30.20,ESE,110,7.6,9.6,49,0.00,,CLR,0.00,VWS V14.01,2013-04-17 13:35:00,
2013-04-17 08:40:00,38.5,20.0,30.20,ESE,108,4.9,4.9,47,0.00,,CLR,0.00,VWS V14.01,2013-04-17 13:40:00,
2013-04-17 08:45:00,38.7,19.7,30.20,ESE,106,5.4,8.3,46,0.00,,CLR,0.00,VWS V14.01,2013-04-17 13:45:00,
2013-04-17 08:50:00,38.8,19.3,30.20,ENE,71,8.3,8.3,45,0.00,,CLR,0.00,VWS V14.01,2013-04-17 13:50:00,
2013-04-17 08:56:00,39.2,19.1,30.20,ESE,103,0.0,3.6,44,0.00,,CLR,0.00,VWS V14.01,2013-04-17 13:56:00,
2013-04-17 09:01:00,39.4,19.3,30.20,ESE,123,2.7,5.4,44,0.00,,OVC100,0.00,VWS V14.01,2013-04-17 14:01:00,
2013-04-17 09:06:00,39.4,18.8,30.20,East,99,4.0,7.6,43,0.00,,OVC100,0.00,VWS V14.01,2013-04-17 14:06:00,
2013-04-17 09:11:00,39.6,18.4,30.20,ENE,71,8.1,8.3,42,0.00,,OVC100,0.00,VWS V14.01,2013-04-17 14:11:00,
2013-04-17 09:16:00,39.6,18.4,30.17,ENE,75,4.0,4.0,42,0.00,,OVC100,0.00,VWS V14.01,2013-04-17 14:16:00,
2013-04-17 09:22:00,39.9,18.7,30.17,East,83,0.0,8.3,42,0.00,,OVC100,0.00,VWS V14.01,2013-04-17 14:22:00,
2013-04-17 09:27:00,39.9,18.7,30.17,ESE,108,6.3,9.6,42,0.00,,OVC100,0.00,VWS V14.01,2013-04-17 14:27:00,
2013-04-17 09:32:00,39.9,18.1,30.14,ENE,70,4.9,7.2,41,0.00,,OVC100,0.00,VWS V14.01,2013-04-17 14:32:00,
2013-04-17 09:38:00,39.9,18.1,30.14,East,86,11.0,11.0,41,0.00,,OVC100,0.00,VWS V14.01,2013-04-17 14:38:00,
2013-04-17 09:43:00,40.3,18.5,30.14,ENE,64,13.2,13.2,41,0.00,,OVC100,0.00,VWS V14.01,2013-04-17 14:43:00,
2013-04-17 09:49:00,40.5,18.6,30.14,East,90,3.6,12.3,41,0.00,,OVC100,0.00,VWS V14.01,2013-04-17 14:49:00,
2013-04-17 09:54:00,40.6,18.8,30.14,NE,36,4.0,6.3,41,0.00,,OVC100,0.00,VWS V14.01,2013-04-17 14:54:00,
2013-04-17 10:00:00,40.8,18.4,30.08,ENE,69,4.9,5.4,40,0.00,,OVC100,0.00,VWS V14.01,2013-04-17 15:00:00,
2013-04-17 10:06:00,41.2,18.7,30.08,East,83,5.8,5.8,40,0.00,,OVC085,0.00,VWS V14.01,2013-04-17 15:06:00,
2013-04-17 10:11:00,41.4,18.9,30.08,East,87,5.8,12.3,40,0.00,,OVC085,0.00,VWS V14.01,2013-04-17 15:11:00,
2013-04-17 10:16:00,41.5,18.4,30.11,ENE,70,8.3,8.3,39,0.00,,OVC085,0.00,VWS V14.01,2013-04-17 15:16:00,
2013-04-17 10:22:00,41.5,18.4,30.11,NNE,31,6.3,7.6,39,0.00,,OVC085,0.00,VWS V14.01,2013-04-17 15:22:00,
2013-04-17 10:27:00,41.5,18.4,30.11,East,98,8.7,8.7,39,0.00,,OVC085,0.00,VWS V14.01,2013-04-17 15:27:00,
2013-04-17 10:32:00,41.4,18.3,30.08,NNE,15,3.6,10.1,39,0.00,,OVC085,0.00,VWS V14.01,2013-04-17 15:32:00,
2013-04-17 10:38:00,41.2,18.1,30.08,NE,53,8.3,10.5,39,0.00,,OVC085,0.00,VWS V14.01,2013-04-17 15:38:00,
2013-04-17 10:43:00,41.0,18.0,30.11,ENE,69,6.3,8.1,39,0.00,,OVC085,0.00,VWS V14.01,2013-04-17 15:43:00,
2013-04-17 10:49:00,40.8,17.8,30.11,ESE,106,7.6,7.6,39,0.00,,OVC085,0.00,VWS V14.01,2013-04-17 15:49:00,
2013-04-17 10:54:00,41.0,18.0,30.11,ENE,66,3.6,11.0,39,0.00,,OVC085,0.00,VWS V14.01,2013-04-17 15:54:00,
2013-04-17 11:00:00,41.2,18.1,30.08,East,79,2.7,6.3,39,0.00,,OVC085,0.00,VWS V14.01,2013-04-17 16:00:00,
2013-04-17 11:05:00,41.5,18.4,30.08,ENE,76,4.0,10.5,39,0.00,,OVC110,0.00,VWS V14.01,2013-04-17 16:05:00,
2013-04-17 11:11:00,41.9,18.8,30.08,ESE,119,6.3,8.1,39,0.00,,OVC110,0.00,VWS V14.01,2013-04-17 16:11:00,
2013-04-17 11:17:00,41.9,18.2,30.05,East,84,4.9,7.6,38,0.00,,OVC110,0.00,VWS V14.01,2013-04-17 16:17:00,
2013-04-17 11:22:00,41.7,18.0,30.05,East,85,3.1,8.7,38,0.00,,OVC110,0.00,VWS V14.01,2013-04-17 16:22:00,
2013-04-17 11:28:00,41.7,18.0,30.11,ENE,78,8.7,12.8,38,0.00,,OVC110,0.00,VWS V14.01,2013-04-17 16:28:00,
2013-04-17 11:34:00,41.5,17.2,30.11,ENE,60,4.9,6.3,37,0.00,,OVC110,0.00,VWS V14.01,2013-04-17 16:34:00,
2013-04-17 11:39:00,41.5,17.2,30.11,ESE,106,10.1,10.5,37,0.00,,OVC110,0.00,VWS V14.01,2013-04-17 16:39:00,
2013-04-17 11:45:00,41.2,17.5,30.08,East,86,8.1,11.0,38,0.00,,OVC110,0.00,VWS V14.01,2013-04-17 16:45:00,
2013-04-17 11:50:00,41.0,17.4,30.08,East,91,4.5,8.1,38,0.00,,OVC110,0.00,VWS V14.01,2013-04-17 16:50:00,
2013-04-17 11:55:00,40.6,17.6,30.08,East,98,4.0,6.7,39,0.00,,OVC110,0.00,VWS V14.01,2013-04-17 16:55:00,
2013-04-17 12:00:00,40.5,17.5,30.11,East,95,7.2,8.1,39,0.00,,OVC110,0.00,VWS V14.01,2013-04-17 17:00:00,
2013-04-17 12:05:00,40.3,17.3,30.11,ENE,77,7.6,7.6,39,0.00,,-RA,0.00,VWS V14.01,2013-04-17 17:05:00,
2013-04-17 12:10:00,40.3,17.9,30.11,ENE,62,5.8,8.3,40,0.00,,-RA,0.00,VWS V14.01,2013-04-17 17:10:00,
2013-04-17 12:15:00,40.1,17.7,30.08,East,84,2.7,5.8,40,0.00,,-RA,0.00,VWS V14.01,2013-04-17 17:15:00,
2013-04-17 12:21:00,39.9,18.1,30.08,East,83,3.6,3.6,41,0.00,,-RA,0.00,VWS V14.01,2013-04-17 17:21:00,
2013-04-17 12:26:00,39.9,18.7,30.08,ENE,71,3.6,8.7,42,0.00,,-RA,0.00,VWS V14.01,2013-04-17 17:26:00,
2013-04-17 12:31:00,39.9,18.7,30.05,East,98,3.1,3.1,42,0.00,,-RA,0.00,VWS V14.01,2013-04-17 17:31:00,
2013-04-17 12:36:00,39.7,19.1,30.05,East,99,2.7,5.8,43,0.00,,-RA,0.00,VWS V14.01,2013-04-17 17:36:00,
2013-04-17 12:42:00,39.7,19.1,30.05,ENE,72,3.1,6.3,43,0.00,,-RA,0.00,VWS V14.01,2013-04-17 17:42:00,
2013-04-17 12:47:00,39.7,19.6,30.05,ENE,60,7.6,8.1,44,0.00,,-RA,0.00,VWS V14.01,2013-04-17 17:47:00,
2013-04-17 12:52:00,39.6,19.5,30.05,ENE,77,3.6,8.1,44,0.05,,-RA,0.05,VWS V14.01,2013-04-17 17:52:00,
2013-04-17 12:58:00,39.4,19.8,30.02,East,86,8.7,8.7,45,0.05,,-RA,0.05,VWS V14.01,2013-04-17 17:58:00,
2013-04-17 13:03:00,39.2,20.2,30.02,East,89,8.1,8.3,46,0.05,,BKN100,0.05,VWS V14.01,2013-04-17 18:03:00,
2013-04-17 13:08:00,39.0,20.5,30.02,ESE,110,5.8,7.6,47,0.05,,BKN100,0.05,VWS V14.01,2013-04-17 18:08:00,
2013-04-17 13:13:00,38.8,20.8,30.02,East,91,4.0,6.3,48,0.05,,BKN100,0.05,VWS V14.01,2013-04-17 18:13:00,
2013-04-17 13:18:00,38.8,20.8,30.02,ESE,105,2.7,7.6,48,0.05,,BKN100,0.05,VWS V14.01,2013-04-17 18:18:00,
2013-04-17 13:24:00,38.7,20.7,30.02,East,97,4.0,7.6,48,0.05,,BKN100,0.05,VWS V14.01,2013-04-17 18:24:00,
2013-04-17 13:30:00,38.7,21.2,30.05,East,81,2.2,4.0,49,0.05,,BKN100,0.05,VWS V14.01,2013-04-17 18:30:00,
2013-04-17 13:35:00,38.7,21.2,30.05,East,98,0.0,2.7,49,0.11,,BKN100,0.11,VWS V14.01,2013-04-17 18:35:00,
2013-04-17 13:41:00,38.7,21.2,30.05,East,101,2.2,5.4,49,0.11,,BKN100,0.11,VWS V14.01,2013-04-17 18:41:00,
2013-04-17 13:46:00,38.5,21.5,30.05,NE,51,5.4,5.4,50,0.11,,BKN100,0.11,VWS V14.01,2013-04-17 18:46:00,
2013-04-17 13:51:00,38.5,21.5,30.05,East,80,4.9,7.6,50,0.11,,BKN100,0.16,VWS V14.01,2013-04-17 18:51:00,
2013-04-17 13:57:00,38.3,21.8,30.05,ENE,61,5.4,9.6,51,0.11,,BKN100,0.16,VWS V14.01,2013-04-17 18:57:00,
2013-04-17 14:02:00,38.1,21.6,30.05,ENE,70,2.2,7.2,51,0.11,,-RA,0.16,VWS V14.01,2013-04-17 19:02:00,
2013-04-17 14:08:00,37.9,21.9,30.05,ENE,74,3.1,4.0,52,0.16,,-RA,0.22,VWS V14.01,2013-04-17 19:08:00,
2013-04-17 14:13:00,37.9,21.9,30.05,NE,47,2.2,3.6,52,0.16,,-RA,0.22,VWS V14.01,2013-04-17 19:13:00,
2013-04-17 14:18:00,37.9,22.4,30.05,ENE,78,0.0,0.0,53,0.16,,-RA,0.22,VWS V14.01,2013-04-17 19:18:00,
2013-04-17 14:23:00,37.9,22.4,30.05,NE,46,3.1,3.1,53,0.22,,-RA,0.27,VWS V14.01,2013-04-17 19:23:00,
2013-04-17 14:29:00,37.9,23.7,30.02,NE,50,2.7,6.3,56,0.22,,-RA,0.27,VWS V14.01,2013-04-17 19:29:00,
2013-04-17 14:34:00,37.9,23.7,30.02,NE,55,0.0,3.1,56,0.27,,-RA,0.32,VWS V14.01,2013-04-17 19:34:00,
2013-04-17 14:39:00,37.8,23.9,30.02,ENE,74,4.9,4.9,57,0.22,,-RA,0.32,VWS V14.01,2013-04-17 19:39:00,
2013-04-17 14:44:00,37.8,23.9,30.02,ENE,59,2.7,3.6,57,0.22,,-RA,0.32,VWS V14.01,2013-04-17 19:44:00,
2013-04-17 14:50:00,37.9,24.5,30.02,East,83,0.0,4.0,58,0.22,,-RA,0.38,VWS V14.01,2013-04-17 19:50:00,
2013-04-17 14:55:00,37.9,24.9,30.02,ENE,62,2.2,4.9,59,0.22,,-RA,0.38,VWS V14.01,2013-04-17 19:55:00,
2013-04-17 15:01:00,37.8,25.1,30.02,ENE,58,2.7,4.0,60,0.22,,RA,0.38,VWS V14.01,2013-04-17 20:01:00,
2013-04-17 15:06:00,37.8,25.5,30.02,ENE,62,4.0,4.0,61,0.16,,RA,0.38,VWS V14.01,2013-04-17 20:06:00,
2013-04-17 15:11:00,37.8,26.3,30.02,East,87,5.4,5.4,63,0.22,,RA,0.43,VWS V14.01,2013-04-17 20:11:00,
2013-04-17 15:16:00,37.9,26.9,29.96,ENE,73,3.1,5.4,64,0.22,,RA,0.43,VWS V14.01,2013-04-17 20:16:00,
2013-04-17 15:22:00,38.5,28.1,29.96,ENE,62,4.0,4.9,66,0.16,,RA,0.43,VWS V14.01,2013-04-17 20:22:00,
2013-04-17 15:27:00,39.4,30.1,29.96,ENE,78,4.9,8.7,69,0.16,,RA,0.43,VWS V14.01,2013-04-17 20:27:00,
2013-04-17 15:32:00,39.9,30.9,29.91,East,96,11.0,11.0,70,0.16,,RA,0.43,VWS V14.01,2013-04-17 20:32:00,
2013-04-17 15:37:00,40.3,31.3,29.91,ENE,66,8.1,13.6,70,0.11,,RA,0.43,VWS V14.01,2013-04-17 20:37:00,
2013-04-17 15:42:00,40.5,31.8,29.91,ENE,76,4.9,15.0,71,0.11,,RA,0.43,VWS V14.01,2013-04-17 20:42:00,
2013-04-17 15:47:00,40.5,32.2,29.88,North,357,4.9,8.3,72,0.05,,RA,0.43,VWS V14.01,2013-04-17 20:47:00,
2013-04-17 15:53:00,40.3,32.0,29.88,NNE,22,4.0,12.8,72,0.05,,RA,0.43,VWS V14.01,2013-04-17 20:53:00,
2013-04-17 15:58:00,39.9,31.6,29.88,East,97,10.5,10.5,72,0.05,,RA,0.43,VWS V14.01,2013-04-17 20:58:00,
2013-04-17 16:04:00,39.9,31.3,29.93,East,82,4.0,5.4,71,0.05,,RA,0.43,VWS V14.01,2013-04-17 21:04:00,
2013-04-17 16:10:00,39.7,30.8,29.93,ESE,103,0.0,5.4,70,0.00,,RA,0.43,VWS V14.01,2013-04-17 21:10:00,
2013-04-17 16:15:00,39.7,30.4,29.93,ENE,69,0.0,3.1,69,0.00,,RA,0.43,VWS V14.01,2013-04-17 21:15:00,
2013-04-17 16:20:00,39.7,30.1,29.93,ENE,67,3.6,5.4,68,0.00,,RA,0.43,VWS V14.01,2013-04-17 21:20:00,
2013-04-17 16:26:00,39.7,29.7,29.93,ENE,60,3.6,7.2,67,0.00,,RA,0.43,VWS V14.01,2013-04-17 21:26:00,
2013-04-17 16:32:00,39.6,29.1,29.91,NNE,13,2.7,8.7,66,0.00,,RA,0.43,VWS V14.01,2013-04-17 21:32:00,
2013-04-17 16:37:00,39.6,28.8,29.91,ENE,61,8.1,8.7,65,0.00,,RA,0.43,VWS V14.01,2013-04-17 21:37:00,
2013-04-17 16:42:00,39.6,28.8,29.91,ENE,70,6.3,7.6,65,0.00,,RA,0.43,VWS V14.01,2013-04-17 21:42:00,
2013-04-17 16:47:00,39.6,28.8,29.91,East,86,7.6,7.6,65,0.00,,RA,0.43,VWS V14.01,2013-04-17 21:47:00,
2013-04-17 16:53:00,39.6,28.8,29.91,ENE,76,7.6,7.6,65,0.00,,RA,0.43,VWS V14.01,2013-04-17 21:53:00,
2013-04-17 16:58:00,39.4,28.6,29.91,East,100,9.6,9.6,65,0.00,,RA,0.43,VWS V14.01,2013-04-17 21:58:00,
2013-04-17 17:04:00,39.4,28.6,29.91,East,88,3.6,6.7,65,0.00,,BKN038,0.43,VWS V14.01,2013-04-17 22:04:00,
2013-04-17 17:10:00,39.4,28.6,29.91,NNE,25,6.3,6.3,65,0.00,,BKN038,0.43,VWS V14.01,2013-04-17 22:10:00,
2013-04-17 17:15:00,39.4,28.6,29.91,NE,55,5.4,5.8,65,0.00,,BKN038,0.43,VWS V14.01,2013-04-17 22:15:00,
2013-04-17 17:20:00,39.2,28.4,29.91,East,92,3.6,8.1,65,0.00,,BKN038,0.43,VWS V14.01,2013-04-17 22:20:00,
2013-04-17 17:25:00,39.2,28.4,29.91,NE,50,8.1,8.1,65,0.00,,BKN038,0.43,VWS V14.01,2013-04-17 22:25:00,
2013-04-17 17:30:00,39.2,28.4,29.93,ESE,105,3.1,8.1,65,0.00,,BKN038,0.43,VWS V14.01,2013-04-17 22:30:00,
2013-04-17 17:37:00,39.2,28.4,29.93,ENE,57,8.3,8.3,65,0.00,,BKN038,0.43,VWS V14.01,2013-04-17 22:37:00,
2013-04-17 17:43:00,39.2,28.4,29.91,ENE,62,5.4,5.4,65,0.00,,BKN038,0.43,VWS V14.01,2013-04-17 22:43:00,
2013-04-17 17:48:00,39.0,28.6,29.91,ESE,118,3.6,6.3,66,0.00,,BKN038,0.43,VWS V14.01,2013-04-17 22:48:00,
2013-04-17 17:54:00,39.0,28.6,29.91,NE,49,10.1,10.5,66,0.00,,BKN038,0.43,VWS V14.01,2013-04-17 22:54:00,
2013-04-17 17:59:00,39.0,28.6,29.91,NE,52,4.0,10.1,66,0.00,,BKN038,0.43,VWS V14.01,2013-04-17 22:59:00,
2013-04-17 18:04:00,39.0,28.6,29.91,East,91,3.6,6.3,66,0.00,,OVC014,0.43,VWS V14.01,2013-04-17 23:04:00,
2013-04-17 18:09:00,39.0,28.6,29.91,ESE,113,2.7,2.7,66,0.00,,OVC014,0.43,VWS V14.01,2013-04-17 23:09:00,
2013-04-17 18:14:00,39.0,28.6,29.91,ENE,74,0.0,6.3,66,0.00,,OVC014,0.43,VWS V14.01,2013-04-17 23:14:00,
2013-04-17 18:20:00,39.0,28.6,29.91,East,96,6.3,6.3,66,0.00,,OVC014,0.43,VWS V14.01,2013-04-17 23:20:00,
2013-04-17 18:25:00,39.0,28.6,29.91,ENE,62,7.6,7.6,66,0.00,,OVC014,0.43,VWS V14.01,2013-04-17 23:25:00,
2013-04-17 18:32:00,39.0,29.0,29.88,ESE,103,3.6,5.8,67,0.00,,OVC014,0.43,VWS V14.01,2013-04-17 23:32:00,
2013-04-17 18:37:00,39.0,29.0,29.88,ESE,108,4.0,5.4,67,0.00,,OVC014,0.43,VWS V14.01,2013-04-17 23:37:00,
2013-04-17 18:42:00,39.0,29.0,29.88,East,84,2.7,6.3,67,0.00,,OVC014,0.43,VWS V14.01,2013-04-17 23:42:00,
2013-04-17 18:47:00,39.0,29.0,29.88,East,95,4.0,8.1,67,0.00,,OVC014,0.43,VWS V14.01,2013-04-17 23:47:00,
2013-04-17 18:53:00,39.0,29.0,29.88,ENE,78,5.8,5.8,67,0.00,,OVC014,0.43,VWS V14.01,2013-04-17 23:53:00,
2013-04-17 18:59:00,39.0,29.0,29.85,East,93,2.2,8.3,67,0.00,,OVC014,0.43,VWS V14.01,2013-04-17 23:59:00,
2013-04-17 19:04:00,39.0,29.0,29.85,East,100,2.7,5.4,67,0.00,,OVC012,0.43,VWS V14.01,2013-04-18 00:04:00,
2013-04-17 19:10:00,38.8,29.2,29.85,ENE,71,8.3,12.3,68,0.00,,OVC012,0.43,VWS V14.01,2013-04-18 00:10:00,
2013-04-17 19:15:00,38.8,29.2,29.82,ENE,74,10.5,10.5,68,0.00,,OVC012,0.43,VWS V14.01,2013-04-18 00:15:00,
2013-04-17 19:21:00,38.8,29.2,29.82,ENE,77,6.7,7.6,68,0.00,,OVC012,0.43,VWS V14.01,2013-04-18 00:21:00,
2013-04-17 19:26:00,38.7,29.0,29.82,ENE,72,2.7,10.1,68,0.00,,OVC012,0.43,VWS V14.01,2013-04-18 00:26:00,
2013-04-17 19:31:00,38.7,29.4,29.79,East,93,4.0,8.1,69,0.00,,OVC012,0.43,VWS V14.01,2013-04-18 00:31:00,
2013-04-17 19:36:00,38.7,29.4,29.79,NE,54,3.6,5.8,69,0.00,,OVC012,0.43,VWS V14.01,2013-04-18 00:36:00,
2013-04-17 19:42:00,38.7,29.4,29.79,ENE,57,0.0,11.0,69,0.00,,OVC012,0.43,VWS V14.01,2013-04-18 00:42:00,
2013-04-17 19:48:00,38.7,29.7,29.79,NE,52,0.0,3.6,70,0.00,,OVC012,0.43,VWS V14.01,2013-04-18 00:48:00,
2013-04-17 19:53:00,38.7,29.7,29.79,ENE,76,3.6,6.3,70,0.00,,OVC012,0.43,VWS V14.01,2013-04-18 00:53:00,
2013-04-17 19:58:00,38.8,29.9,29.79,NE,56,3.6,7.6,70,0.00,,OVC012,0.43,VWS V14.01,2013-04-18 00:58:00,
2013-04-17 20:03:00,38.8,30.3,29.79,East,90,8.3,11.9,71,0.00,,OVC008,0.43,VWS V14.01,2013-04-18 01:03:00,
2013-04-17 20:09:00,38.8,30.3,29.79,ESE,122,3.1,7.6,71,0.00,,OVC008,0.43,VWS V14.01,2013-04-18 01:09:00,
2013-04-17 20:14:00,38.8,30.6,29.79,East,80,0.0,4.9,72,0.00,,OVC008,0.43,VWS V14.01,2013-04-18 01:14:00,
2013-04-17 20:20:00,39.0,30.8,29.79,ENE,73,3.1,8.3,72,0.00,,OVC008,0.43,VWS V14.01,2013-04-18 01:20:00,
2013-04-17 20:25:00,39.0,30.8,29.79,NE,40,0.0,2.7,72,0.00,,OVC008,0.43,VWS V14.01,2013-04-18 01:25:00,
2013-04-17 20:30:00,39.2,31.0,29.79,ENE,64,5.4,7.2,72,0.00,,OVC008,0.43,VWS V14.01,2013-04-18 01:30:00,
2013-04-17 20:35:00,39.2,31.0,29.79,ESE,106,3.6,4.0,72,0.00,,OVC008,0.43,VWS V14.01,2013-04-18 01:35:00,
2013-04-17 20:40:00,39.2,31.3,29.79,ESE,106,8.1,8.1,73,0.00,,OVC008,0.43,VWS V14.01,2013-04-18 01:40:00,
2013-04-17 20:45:00,39.2,31.3,29.79,ENE,66,3.6,3.6,73,0.00,,OVC008,0.43,VWS V14.01,2013-04-18 01:45:00,
2013-04-17 20:51:00,39.4,31.5,29.79,ESE,111,4.9,6.3,73,0.00,,OVC008,0.43,VWS V14.01,2013-04-18 01:51:00,
2013-04-17 20:56:00,39.4,31.5,29.79,ENE,72,4.0,5.8,73,0.00,,OVC008,0.43,VWS V14.01,2013-04-18 01:56:00,
2013-04-17 21:02:00,39.6,32.0,29.79,ENE,61,0.0,4.0,74,0.00,,OVC008,0.43,VWS V14.01,2013-04-18 02:02:00,
2013-04-17 21:07:00,39.6,32.0,29.79,ENE,64,2.7,5.8,74,0.00,,OVC008,0.43,VWS V14.01,2013-04-18 02:07:00,
2013-04-17 21:13:00,39.7,32.1,29.79,ENE,73,3.6,3.6,74,0.00,,OVC008,0.43,VWS V14.01,2013-04-18 02:13:00,
2013-04-17 21:18:00,39.7,32.1,29.79,ESE,104,4.0,4.0,74,0.00,,OVC008,0.43,VWS V14.01,2013-04-18 02:18:00,
2013-04-17 21:23:00,39.9,32.3,29.79,East,87,2.7,4.9,74,0.00,,OVC008,0.43,VWS V14.01,2013-04-18 02:23:00,
2013-04-17 21:29:00,39.9,32.7,29.79,East,90,5.8,5.8,75,0.00,,OVC008,0.43,VWS V14.01,2013-04-18 02:29:00,
2013-04-17 21:34:00,40.1,32.8,29.79,East,93,4.9,7.6,75,0.00,,OVC008,0.43,VWS V14.01,2013-04-18 02:34:00,
2013-04-17 21:39:00,40.3,33.0,29.79,ESE,109,4.0,4.9,75,0.00,,OVC008,0.43,VWS V14.01,2013-04-18 02:39:00,
2013-04-17 21:44:00,40.3,33.0,29.76,East,97,5.4,8.1,75,0.00,,OVC008,0.43,VWS V14.01,2013-04-18 02:44:00,
2013-04-17 21:49:00,40.5,33.2,29.76,ENE,59,7.6,11.0,75,0.00,,OVC008,0.43,VWS V14.01,2013-04-18 02:49:00,
2013-04-17 21:55:00,40.5,33.5,29.76,East,95,5.4,7.2,76,0.00,,OVC008,0.43,VWS V14.01,2013-04-18 02:55:00,
2013-04-17 22:00:00,40.5,33.5,29.76,East,97,5.4,6.3,76,0.00,,OVC008,0.43,VWS V14.01,2013-04-18 03:00:00,
2013-04-17 22:05:00,40.5,33.5,29.76,ENE,75,3.6,11.0,76,0.00,,OVC008,0.43,VWS V14.01,2013-04-18 03:05:00,
2013-04-17 22:11:00,40.5,33.5,29.76,NE,43,2.7,5.4,76,0.00,,OVC008,0.43,VWS V14.01,2013-04-18 03:11:00,
2013-04-17 22:16:00,40.5,33.5,29.79,East,85,5.4,5.4,76,0.00,,OVC008,0.43,VWS V14.01,2013-04-18 03:16:00,
2013-04-17 22:22:00,40.5,33.8,29.79,ENE,69,3.6,11.4,77,0.00,,OVC008,0.43,VWS V14.01,2013-04-18 03:22:00,
2013-04-17 22:27:00,40.5,33.8,29.79,East,91,0.0,4.5,77,0.00,,OVC008,0.43,VWS V14.01,2013-04-18 03:27:00,
2013-04-17 22:33:00,40.5,33.8,29.76,ESE,113,8.7,8.7,77,0.00,,OVC008,0.43,VWS V14.01,2013-04-18 03:33:00,
2013-04-17 22:38:00,40.5,33.8,29.76,ENE,66,3.6,5.8,77,0.00,,OVC008,0.43,VWS V14.01,2013-04-18 03:38:00,
2013-04-17 22:44:00,40.5,33.8,29.79,ENE,61,0.0,5.8,77,0.00,,OVC008,0.43,VWS V14.01,2013-04-18 03:44:00,
2013-04-17 22:50:00,40.5,33.8,29.79,NE,48,0.0,0.0,77,0.00,,OVC008,0.43,VWS V14.01,2013-04-18 03:50:00,
2013-04-17 22:55:00,40.5,34.2,29.79,NE,52,4.0,4.0,78,0.00,,OVC008,0.43,VWS V14.01,2013-04-18 03:55:00,
2013-04-17 23:01:00,40.3,34.0,29.79,NE,42,0.0,4.0,78,0.00,,OVC008,0.43,VWS V14.01,2013-04-18 04:01:00,
2013-04-17 23:02:00,40.3,34.0,29.79,ENE,66,4.0,4.0,78,0.00,,OVC008,0.43,VWS V14.01,2013-04-18 04:02:00,
2013-04-17 23:05:00,40.3,34.0,29.79,East,93,5.8,8.7,78,0.00,,OVC008,0.43,VWS V14.01,2013-04-18 04:05:00,
2013-04-17 23:06:00,40.3,34.0,29.79,ENE,71,0.0,5.8,78,0.00,,OVC008,0.43,VWS V14.01,2013-04-18 04:06:00,
2013-04-17 23:07:00,40.3,34.0,29.79,ENE,75,0.0,0.0,78,0.00,,OVC008,0.43,VWS V14.01,2013-04-18 04:07:00,
2013-04-17 23:13:00,40.3,34.0,29.79,ENE,70,0.0,3.6,78,0.00,,OVC008,0.43,VWS V14.01,2013-04-18 04:13:00,
2013-04-17 23:18:00,40.3,34.0,29.76,NNE,24,2.7,5.4,78,0.00,,OVC008,0.43,VWS V14.01,2013-04-18 04:18:00,
2013-04-17 23:23:00,40.3,34.0,29.76,ENE,62,0.0,5.4,78,0.00,,OVC008,0.43,VWS V14.01,2013-04-18 04:23:00,
2013-04-17 23:28:00,40.1,33.8,29.76,ENE,64,0.0,4.0,78,0.00,,OVC008,0.43,VWS V14.01,2013-04-18 04:28:00,
2013-04-17 23:33:00,40.1,33.8,29.76,NE,55,4.0,6.3,78,0.00,,OVC008,0.43,VWS V14.01,2013-04-18 04:33:00,
2013-04-17 23:38:00,39.9,33.6,29.76,ENE,77,3.6,8.3,78,0.00,,OVC008,0.43,VWS V14.01,2013-04-18 04:38:00,
2013-04-17 23:44:00,39.9,33.6,29.76,ENE,63,5.4,8.1,78,0.00,,OVC008,0.43,VWS V14.01,2013-04-18 04:44:00,
2013-04-17 23:49:00,39.9,33.6,29.76,East,81,4.5,6.3,78,0.00,,OVC008,0.43,VWS V14.01,2013-04-18 04:49:00,
2013-04-17 23:54:00,39.9,33.6,29.76,ESE,103,5.4,8.3,78,0.11,,OVC008,0.54,VWS V14.01,2013-04-18 04:54:00,
2013-04-17 23:59:00,39.7,33.8,29.76,East,97,5.4,5.8,79,0.11,,OVC008,0.54,VWS V14.01,2013-04-18 04:59:00,